»·PEaware :: N122Y KAJO-KVCV

N122Y :: KAJO-KVCV

FLIGHT INFORMATION

Flight Status: Arrived
Operator: Privately registered:
United States
More flights under this callsign
Pilot: Shane R. (32010)
Aircraft: CESSNA 172 SKYHAWK
(C172)
More flights by this aircraft type
Origin: KAJO Corona Mun
United States
Destination: KVCV Socal Logistics
United States
More flights between these airports :: More routes between these airports
Route: +PDZ V442 APLES
File this flight plan on PilotEdge
Remarks: ODP
Altitude:
(Current/Filed)
9,000ft
Speed:
(Current/Filed)
115kts
Departed: 30-Oct-20 04:47 PM
Arrived: 30-Oct-20 05:58 PM
Distance/Time
Traveled:
43nm/1:11
Distance/Time
To Go:
Arrived

Flight Plot

Page will automatically refresh every two minutes.


Map Options




Map Legend


Flown Route
Filed Route
Departure Airport
Arrival Airport
Navaid (VOR, NDB)
Fix

Horizontal Profiles

Position Reports

Time Latitude Longitude Heading Altitude Ground
Speed
30-Oct-20 16:25 33.896920 -117.605909 90 537ft 0kts
30-Oct-20 16:26 33.896920 -117.605909 90 537ft 0kts
30-Oct-20 16:27 33.896920 -117.605909 90 537ft 0kts
30-Oct-20 16:28 33.896920 -117.605909 90 537ft 0kts
30-Oct-20 16:29 33.896920 -117.605909 90 537ft 0kts
30-Oct-20 16:30 33.896920 -117.605909 90 537ft 0kts
30-Oct-20 16:31 33.896920 -117.605909 90 537ft 0kts
30-Oct-20 16:32 33.896920 -117.605909 90 537ft 0kts
30-Oct-20 16:33 33.896920 -117.605909 90 537ft 0kts
30-Oct-20 16:34 33.896920 -117.605909 90 537ft 0kts
30-Oct-20 16:35 33.896920 -117.605909 90 537ft 0kts
30-Oct-20 16:36 33.896920 -117.605909 90 537ft 0kts
30-Oct-20 16:37 33.896920 -117.605909 90 537ft 0kts
30-Oct-20 16:38 33.896920 -117.605909 90 537ft 0kts
30-Oct-20 16:39 33.896920 -117.605909 90 537ft 0kts
30-Oct-20 16:40 33.896920 -117.605909 90 537ft 0kts
30-Oct-20 16:41 33.896920 -117.605909 90 537ft 0kts
30-Oct-20 16:42 33.897041 -117.605815 20 537ft 0kts
30-Oct-20 16:43 33.897041 -117.605815 20 537ft 0kts
30-Oct-20 16:44 33.897041 -117.605815 20 537ft 0kts
30-Oct-20 16:45 33.897041 -117.605815 20 537ft 0kts
30-Oct-20 16:46 33.897362 -117.591832 91 784ft 91kts
30-Oct-20 16:47 33.903838 -117.564267 40 1799ft 89kts
30-Oct-20 16:48 33.912524 -117.537047 54 2775ft 88kts
30-Oct-20 16:49 33.928478 -117.516077 40 3709ft 83kts
30-Oct-20 16:50 33.939775 -117.494186 130 4560ft 88kts
30-Oct-20 16:51 33.927773 -117.514106 227 5314ft 84kts
30-Oct-20 16:52 33.918560 -117.537340 305 5982ft 86kts
30-Oct-20 16:53 33.943262 -117.527751 40 6000ft 121kts
30-Oct-20 16:54 33.960849 -117.498527 107 6429ft 109kts
30-Oct-20 16:55 33.936007 -117.502227 221 7005ft 106kts
30-Oct-20 16:56 33.918288 -117.527785 283 7588ft 96kts
30-Oct-20 16:57 33.936174 -117.528012 40 8169ft 79kts
30-Oct-20 16:58 33.951489 -117.510962 41 8748ft 69kts
30-Oct-20 16:59 33.952393 -117.490581 152 9003ft 109kts
30-Oct-20 17:00 33.923384 -117.510234 221 8999ft 133kts
30-Oct-20 17:01 33.927119 -117.539663 11 8994ft 115kts
30-Oct-20 17:02 33.951935 -117.515512 41 8998ft 116kts
30-Oct-20 17:03 33.979268 -117.494934 32 8998ft 116kts
30-Oct-20 17:04 34.007879 -117.477163 26 8998ft 116kts
30-Oct-20 17:05 34.037490 -117.461544 23 8998ft 116kts
30-Oct-20 17:06 34.066496 -117.444769 26 9007ft 115kts
30-Oct-20 17:07 34.095267 -117.427359 26 9007ft 116kts
30-Oct-20 17:08 34.124924 -117.409404 26 9009ft 116kts
30-Oct-20 17:09 34.153877 -117.391868 26 9009ft 116kts
30-Oct-20 17:10 34.182247 -117.374677 26 9009ft 116kts
30-Oct-20 17:11 34.211204 -117.357125 26 9009ft 116kts
30-Oct-20 17:12 34.240260 -117.339488 27 9010ft 116kts
30-Oct-20 17:13 34.269446 -117.321617 27 9001ft 120kts
30-Oct-20 17:14 34.299497 -117.303092 26 9000ft 121kts
30-Oct-20 17:15 34.330000 -117.284299 26 8904ft 126kts
30-Oct-20 17:16 34.360706 -117.265376 26 8899ft 122kts
30-Oct-20 17:17 34.390054 -117.247217 27 8999ft 120kts
30-Oct-20 17:18 34.420394 -117.228641 27 9000ft 123kts
30-Oct-20 17:19 34.451292 -117.210026 27 9000ft 124kts
30-Oct-20 17:20 34.481971 -117.190853 28 9000ft 124kts
30-Oct-20 17:21 34.512601 -117.171597 28 9000ft 124kts
30-Oct-20 17:22 34.543354 -117.152264 28 9000ft 124kts
30-Oct-20 17:23 34.578553 -117.142382 4 8646ft 139kts
30-Oct-20 17:24 34.617653 -117.147172 354 8147ft 141kts
30-Oct-20 17:25 34.656194 -117.156474 343 7649ft 142kts
30-Oct-20 17:26 34.692626 -117.176078 337 7148ft 143kts
30-Oct-20 17:27 34.726557 -117.201273 315 6650ft 146kts
30-Oct-20 17:28 34.751180 -117.237727 311 6599ft 135kts
30-Oct-20 17:29 34.773122 -117.271678 307 6596ft 113kts
30-Oct-20 17:31 34.785683 -117.305439 292 6156ft 116kts
30-Oct-20 17:32 34.792006 -117.344965 250 5221ft 117kts
30-Oct-20 17:33 34.762951 -117.361467 198 4726ft 131kts
30-Oct-20 17:34 34.728090 -117.375976 197 4298ft 126kts
30-Oct-20 17:35 34.694787 -117.379679 186 4299ft 118kts
30-Oct-20 17:36 34.660749 -117.384725 181 3919ft 138kts
30-Oct-20 17:37 34.620701 -117.389188 184 3214ft 142kts
30-Oct-20 17:38 34.586904 -117.392656 200 4025ft 108kts
30-Oct-20 17:39 34.588406 -117.416872 331 4878ft 82kts
30-Oct-20 17:40 34.600782 -117.435776 295 5744ft 63kts
30-Oct-20 17:41 34.600308 -117.458931 258 6114ft 97kts
30-Oct-20 17:42 34.594613 -117.497781 262 6193ft 128kts
30-Oct-20 17:43 34.586070 -117.540358 257 6309ft 130kts
30-Oct-20 17:44 34.576124 -117.581186 252 6296ft 141kts
30-Oct-20 17:45 34.545446 -117.582552 183 5416ft 164kts
30-Oct-20 17:46 34.506099 -117.595167 202 5397ft 140kts
30-Oct-20 17:46 34.498834 -117.625086 326 5377ft 128kts
30-Oct-20 17:48 34.536932 -117.616743 19 5478ft 121kts
30-Oct-20 17:48 34.545951 -117.585516 70 5482ft 126kts
30-Oct-20 17:50 34.559184 -117.535632 71 5036ft 138kts
30-Oct-20 17:50 34.570885 -117.499411 73 4615ft 140kts
30-Oct-20 17:52 34.569055 -117.446096 81 4499ft 130kts
30-Oct-20 17:52 34.577922 -117.411739 56 4462ft 129kts
30-Oct-20 17:54 34.602154 -117.372085 49 4299ft 118kts
30-Oct-20 17:54 34.619892 -117.349128 42 4291ft 103kts
30-Oct-20 17:56 34.620498 -117.340281 243 3487ft 145kts
30-Oct-20 17:56 34.603123 -117.363579 225 2883ft 86kts
30-Oct-20 17:57 34.593800 -117.372719 179 2864ft 0kts
30-Oct-20 17:58 34.587934 -117.375003 172 2875ft 0kts

Navigation Log

Ident Type
Flight plan parsing failed, navigation log unavailable